Time;durP1;ratioP1;P1;durP2;ratioP2;P2;SDS_P1;SDS_P2;PMS_P1;PMS_P2;Temp;Humidity;BMP_temperature;BMP_pressure;BME280_temperature;BME280_humidity;BME280_pressure;Samples;Min_cycle;Max_cycle;Signal;HPM_P1;HPM_P2
2021/11/04 00:00:10;;;;;;;17.10;15.57;;;;;;;8.68;94.69;98966.13;4969585;28;20208;-78
2021/11/04 00:02:36;;;;;;;16.97;15.20;;;;;;;8.67;94.97;98961.81;4969201;28;20228;-77
2021/11/04 00:05:03;;;;;;;16.77;15.43;;;;;;;8.71;95.02;98962.56;4969258;28;20882;-77
2021/11/04 00:07:30;;;;;;;16.97;15.57;;;;;;;8.72;94.57;98966.84;4967176;28;20627;-77
2021/11/04 00:09:56;;;;;;;16.97;15.40;;;;;;;8.74;94.14;98978.06;4967740;28;20644;-77
2021/11/04 00:12:24;;;;;;;16.63;15.20;;;;;;;8.68;94.59;98978.25;4970606;28;20631;-77
2021/11/04 00:14:50;;;;;;;18.07;16.23;;;;;;;8.63;94.68;98975.00;4969871;28;20563;-77
2021/11/04 00:17:17;;;;;;;16.57;15.03;;;;;;;8.64;94.76;98972.34;4966680;28;20262;-77
2021/11/04 00:19:44;;;;;;;16.53;15.23;;;;;;;8.60;94.72;98967.28;4970167;28;20219;-77
2021/11/04 00:22:10;;;;;;;17.50;16.10;;;;;;;8.66;94.76;98977.47;4967000;28;20642;-77
2021/11/04 00:24:37;;;;;;;16.47;15.07;;;;;;;8.62;94.85;98970.69;4967564;28;20423;-77
2021/11/04 00:27:04;;;;;;;15.53;14.13;;;;;;;8.67;94.84;98971.38;4970915;28;20230;-77
2021/11/04 00:29:31;;;;;;;16.20;14.80;;;;;;;8.64;94.51;98968.88;4972229;28;20219;-77
2021/11/04 00:32:00;;;;;;;16.70;15.30;;;;;;;8.69;94.07;98974.78;4966574;28;20789;-77
2021/11/04 00:34:26;;;;;;;15.27;13.90;;;;;;;8.71;94.32;98986.81;4972618;28;20701;-77
2021/11/04 00:36:53;;;;;;;16.13;14.83;;;;;;;8.72;93.93;98993.72;4968814;28;20265;-77
2021/11/04 00:39:19;;;;;;;15.67;14.47;;;;;;;8.73;93.90;98986.78;4970956;28;20561;-77
2021/11/04 00:41:46;;;;;;;15.20;13.80;;;;;;;8.72;93.75;98987.66;4969462;28;20306;-78
2021/11/04 00:44:12;;;;;;;14.37;13.17;;;;;;;8.72;94.07;98987.66;4974108;28;20290;-77
2021/11/04 00:46:40;;;;;;;15.03;13.73;;;;;;;8.72;93.72;98991.13;4970845;28;20204;-77
2021/11/04 00:49:07;;;;;;;15.17;13.73;;;;;;;8.69;94.13;98982.59;4965631;28;20265;-77
2021/11/04 00:51:33;;;;;;;16.37;15.07;;;;;;;8.63;94.73;98978.44;4971745;28;20236;-77
2021/11/04 00:54:00;;;;;;;16.60;14.17;;;;;;;8.66;94.70;98970.53;4966555;28;20277;-77
2021/11/04 00:56:26;;;;;;;15.07;13.57;;;;;;;8.64;94.24;98974.94;4972508;28;20204;-77
2021/11/04 00:58:53;;;;;;;16.20;14.90;;;;;;;8.68;94.32;98978.25;4969028;28;20263;-77
2021/11/04 01:01:20;;;;;;;15.93;14.40;;;;;;;8.68;94.00;98984.34;4965802;28;20212;-77
2021/11/04 01:03:49;;;;;;;15.90;14.00;;;;;;;8.68;94.20;98986.94;4966503;28;20222;-78
2021/11/04 01:06:16;;;;;;;15.23;14.03;;;;;;;8.67;94.35;98980.03;4965936;28;20302;-77
2021/11/04 01:08:43;;;;;;;15.47;14.17;;;;;;;8.68;93.86;98986.94;4968904;28;20727;-77
2021/11/04 01:11:09;;;;;;;16.60;15.00;;;;;;;8.62;94.21;98981.09;4966345;28;20226;-77
2021/11/04 01:13:37;;;;;;;16.13;14.80;;;;;;;8.62;94.15;98975.88;4970291;28;20216;-77
2021/11/04 01:16:04;;;;;;;15.40;14.10;;;;;;;8.66;94.19;98974.88;4966835;28;20274;-77
2021/11/04 01:18:30;;;;;;;15.33;13.93;;;;;;;8.67;94.00;98993.03;4965628;28;20215;-77
2021/11/04 01:20:58;;;;;;;15.30;14.00;;;;;;;8.68;93.47;98994.75;4966788;28;20687;-78
2021/11/04 01:23:25;;;;;;;15.87;14.50;;;;;;;8.64;94.05;98990.56;4972857;28;20290;-78
2021/11/04 01:25:51;;;;;;;15.53;14.23;;;;;;;8.61;94.21;98993.25;4968240;28;20293;-78
2021/11/04 01:28:18;;;;;;;15.10;13.90;;;;;;;8.62;93.45;98989.75;4969757;28;20211;-78
2021/11/04 01:30:44;;;;;;;15.40;14.13;;;;;;;8.60;94.26;98988.09;4969945;28;20219;-78
2021/11/04 01:33:11;;;;;;;15.00;13.77;;;;;;;8.61;93.92;98984.59;4967077;28;20258;-78
2021/11/04 01:35:38;;;;;;;16.27;14.73;;;;;;;8.64;94.04;98987.94;4971513;28;20567;-78
2021/11/04 01:38:07;;;;;;;15.50;14.30;;;;;;;8.63;93.80;98980.19;4967089;28;20212;-78
2021/11/04 01:40:35;;;;;;;15.37;14.03;;;;;;;8.64;93.84;98980.16;4971855;28;20216;-78
2021/11/04 01:43:03;;;;;;;15.70;14.23;;;;;;;8.63;93.19;98973.22;4968989;28;20227;-77
2021/11/04 01:45:29;;;;;;;14.83;13.53;;;;;;;8.61;93.65;98977.63;4973215;28;20239;-77
2021/11/04 01:47:56;;;;;;;15.60;14.30;;;;;;;8.57;94.00;98975.22;4966845;28;20690;-77
2021/11/04 01:50:25;;;;;;;15.37;14.07;;;;;;;8.59;93.64;98970.81;4972732;28;20219;-78
2021/11/04 01:52:52;;;;;;;14.60;13.40;;;;;;;8.58;93.33;98966.50;4969551;28;20243;-78
2021/11/04 01:55:22;;;;;;;15.93;14.53;;;;;;;8.58;93.54;98961.28;4973855;28;20279;-78
2021/11/04 01:57:48;;;;;;;16.17;14.63;;;;;;;8.62;93.38;98952.47;4973331;28;20211;-78
2021/11/04 02:00:17;;;;;;;15.73;13.43;;;;;;;8.58;93.61;98949.13;4966406;28;20695;-78
2021/11/04 02:02:47;;;;;;;16.73;15.00;;;;;;;8.59;93.92;98939.59;4970313;28;20228;-78
2021/11/04 02:05:19;;;;;;;16.03;14.63;;;;;;;8.60;93.13;98939.50;4966804;28;20719;-77
2021/11/04 02:07:50;;;;;;;14.60;13.40;;;;;;;8.59;93.34;98943.03;4967059;28;20216;-78
2021/11/04 02:10:25;;;;;;;15.67;14.33;;;;;;;8.62;93.54;98948.16;4966265;28;20208;-78
2021/11/04 02:12:58;;;;;;;15.70;14.40;;;;;;;8.59;93.96;98942.19;4967335;28;20227;-78
2021/11/04 02:15:27;;;;;;;16.07;14.73;;;;;;;8.56;93.66;98937.94;4977427;28;20207;-78
2021/11/04 02:17:56;;;;;;;15.27;13.97;;;;;;;8.55;93.37;98931.88;4972834;28;20216;-78
2021/11/04 02:20:30;;;;;;;15.97;14.73;;;;;;;8.50;93.76;98930.34;4979114;28;20259;-77
2021/11/04 02:23:02;;;;;;;15.57;14.27;;;;;;;8.53;93.55;98923.28;4970427;28;20286;-78
2021/11/04 02:25:33;;;;;;;14.50;13.30;;;;;;;8.51;94.34;98924.25;4972117;28;20279;-77
2021/11/04 02:28:06;;;;;;;15.40;14.20;;;;;;;8.53;93.57;98928.50;4970676;28;20212;-77
2021/11/04 02:30:34;;;;;;;15.97;14.47;;;;;;;8.51;93.55;98932.91;4965342;28;20252;-78
2021/11/04 02:33:02;;;;;;;16.30;14.90;;;;;;;8.54;93.41;98939.72;4968671;28;20282;-78
2021/11/04 02:35:29;;;;;;;16.20;14.57;;;;;;;8.52;93.92;98937.22;4971321;28;20210;-78
2021/11/04 02:37:56;;;;;;;17.00;15.50;;;;;;;8.50;93.57;98932.94;4967748;28;20673;-77
2021/11/04 02:40:23;;;;;;;16.43;14.77;;;;;;;8.52;94.04;98937.22;4966219;28;20207;-77
2021/11/04 02:42:52;;;;;;;16.97;15.57;;;;;;;8.50;93.55;98944.22;4965296;28;20223;-77
2021/11/04 02:48:41;;;;;;;17.57;15.87;;;;;;;8.49;93.01;98937.31;4963675;28;20242;-78
2021/11/04 02:51:09;;;;;;;17.47;15.80;;;;;;;8.49;93.45;98931.25;4967980;28;20207;-78
2021/11/04 02:53:38;;;;;;;16.93;15.33;;;;;;;8.49;93.64;98933.84;4965996;28;20216;-78
2021/11/04 02:56:04;;;;;;;18.50;16.80;;;;;;;8.46;93.55;98939.16;4967230;28;20215;-78
2021/11/04 02:58:32;;;;;;;16.90;15.50;;;;;;;8.46;93.60;98934.81;4968055;28;20266;-77
2021/11/04 03:01:03;;;;;;;17.97;16.07;;;;;;;8.47;93.53;98930.47;4965471;28;20212;-78
2021/11/04 03:03:29;;;;;;;17.67;16.17;;;;;;;8.46;93.82;98928.75;4967466;28;20272;-77
2021/11/04 03:05:56;;;;;;;18.37;16.67;;;;;;;8.45;93.42;98929.66;4967123;28;20227;-78
2021/11/04 03:08:24;;;;;;;16.20;14.83;;;;;;;8.49;93.40;98918.25;4965891;28;20638;-78
2021/11/04 03:10:51;;;;;;;16.67;15.20;;;;;;;8.49;93.82;98919.09;4968606;28;20242;-77
2021/11/04 03:13:17;;;;;;;16.57;15.17;;;;;;;8.50;93.68;98927.75;4966581;28;20231;-78
2021/11/04 03:15:50;;;;;;;17.37;15.87;;;;;;;8.50;93.59;98927.75;4965788;28;20211;-78
2021/11/04 03:18:17;;;;;;;17.10;15.70;;;;;;;8.46;93.54;98927.03;4964713;28;20216;-78
2021/11/04 03:20:45;;;;;;;17.27;15.73;;;;;;;8.49;93.33;98928.66;4965823;28;20757;-77
2021/11/04 03:23:12;;;;;;;18.03;16.40;;;;;;;8.42;93.64;98924.56;4965533;28;20652;-75
2021/11/04 03:25:39;;;;;;;16.53;15.00;;;;;;;8.39;93.87;98925.50;4965508;28;20227;-76
2021/11/04 03:28:06;;;;;;;16.23;14.93;;;;;;;8.43;94.23;98932.31;4967546;28;20734;-77
2021/11/04 03:30:36;;;;;;;15.23;13.93;;;;;;;8.42;94.04;98928.00;4964527;28;20269;-77
2021/11/04 03:33:05;;;;;;;16.03;14.73;;;;;;;8.45;94.00;98927.91;4966328;28;20291;-77
2021/11/04 03:35:34;;;;;;;16.97;15.47;;;;;;;8.42;93.88;98943.59;4966472;28;20734;-77
2021/11/04 03:38:02;;;;;;;16.30;14.83;;;;;;;8.44;94.00;98947.00;4965211;28;20215;-77
2021/11/04 03:40:30;;;;;;;16.23;14.73;;;;;;;8.44;93.71;98946.16;4969459;28;20266;-78
2021/11/04 03:42:57;;;;;;;15.83;14.43;;;;;;;8.41;93.80;98949.72;4966408;28;20231;-77
2021/11/04 03:45:23;;;;;;;15.73;14.37;;;;;;;8.44;93.75;98940.97;4969992;28;20290;-77
2021/11/04 03:47:50;;;;;;;15.63;14.43;;;;;;;8.42;93.80;98945.38;4964110;28;20216;-77
2021/11/04 03:50:19;;;;;;;15.20;14.07;;;;;;;8.44;93.62;98948.75;4965357;28;20211;-78
2021/11/04 03:52:46;;;;;;;16.00;14.70;;;;;;;8.44;93.54;98960.00;4968682;28;20247;-77
2021/11/04 03:55:14;;;;;;;15.50;14.20;;;;;;;8.45;93.50;98953.06;4965556;28;20251;-77
2021/11/04 03:57:42;;;;;;;15.30;13.93;;;;;;;8.43;93.85;98952.28;4967141;28;20303;-75
2021/11/04 04:00:12;;;;;;;16.57;15.17;;;;;;;8.41;93.64;98951.44;4963917;28;20208;-77
2021/11/04 04:02:39;;;;;;;16.33;15.03;;;;;;;8.42;93.52;98947.97;4963273;28;20329;-77
2021/11/04 04:05:06;;;;;;;14.80;13.60;;;;;;;8.43;93.20;98955.72;4967057;28;20212;-78
2021/11/04 04:07:34;;;;;;;15.57;14.27;;;;;;;8.41;93.41;98957.53;4964416;28;20250;-76
2021/11/04 04:10:00;;;;;;;16.37;14.97;;;;;;;8.41;93.32;98952.31;4964686;28;20204;-78
2021/11/04 04:12:28;;;;;;;15.53;14.23;;;;;;;8.37;94.03;98950.69;4970588;28;20659;-77
2021/11/04 04:14:54;;;;;;;15.77;14.50;;;;;;;8.38;93.63;98948.94;4971524;28;20212;-77
2021/11/04 04:17:21;;;;;;;17.40;15.67;;;;;;;8.30;93.61;98941.41;4974779;28;20239;-77
2021/11/04 04:19:47;;;;;;;16.47;15.17;;;;;;;8.33;93.97;98938.69;4967376;28;20308;-78
2021/11/04 04:22:14;;;;;;;16.27;14.83;;;;;;;8.33;93.51;98946.50;4968587;28;20224;-77
2021/11/04 04:24:42;;;;;;;16.27;14.87;;;;;;;8.36;93.70;98943.78;4971526;28;20209;-77
2021/11/04 04:27:08;;;;;;;16.07;14.60;;;;;;;8.36;93.28;98956.78;4970790;28;20321;-77
2021/11/04 04:29:34;;;;;;;15.87;14.47;;;;;;;8.39;93.44;98961.06;4977406;28;20211;-78
2021/11/04 04:32:01;;;;;;;16.53;15.23;;;;;;;8.34;92.96;98959.47;4969341;28;20224;-77
2021/11/04 04:34:27;;;;;;;15.70;14.40;;;;;;;8.37;93.52;98960.25;4972970;28;20215;-77
2021/11/04 04:36:53;;;;;;;16.10;14.67;;;;;;;8.37;93.27;98968.91;4969669;28;20734;-77
2021/11/04 04:39:20;;;;;;;16.43;15.00;;;;;;;8.35;93.06;98962.91;4973292;28;20322;-77
2021/11/04 04:41:47;;;;;;;17.00;15.63;;;;;;;8.36;92.65;98972.38;4966642;28;20244;-76
2021/11/04 04:44:14;;;;;;;16.00;14.60;;;;;;;8.32;93.05;98973.38;4966963;28;20262;-77
2021/11/04 04:46:40;;;;;;;17.17;15.77;;;;;;;8.31;93.38;98974.31;4967034;28;20283;-76
2021/11/04 04:49:06;;;;;;;17.67;16.30;;;;;;;8.30;93.75;98965.63;4968019;28;20291;-78
2021/11/04 04:51:33;;;;;;;17.03;15.53;;;;;;;8.31;93.77;98961.31;4972619;28;20247;-76
2021/11/04 04:53:59;;;;;;;18.63;16.97;;;;;;;8.30;93.24;98972.59;4970064;28;20212;-78
2021/11/04 04:56:26;;;;;;;17.57;15.97;;;;;;;8.32;93.18;98976.00;4973650;28;20208;-77
2021/11/04 04:58:53;;;;;;;17.27;15.67;;;;;;;8.31;93.50;98979.50;4969385;28;20219;-77
2021/11/04 05:01:20;;;;;;;17.27;15.77;;;;;;;8.32;93.11;98986.38;4974571;28;20216;-77
2021/11/04 05:03:46;;;;;;;17.10;15.67;;;;;;;8.31;93.62;98976.91;4968300;28;20216;-77
2021/11/04 05:06:12;;;;;;;16.03;14.63;;;;;;;8.31;93.24;98976.91;4967063;28;20228;-77
2021/11/04 05:08:39;;;;;;;17.67;15.97;;;;;;;8.33;93.54;98990.69;4972997;28;20208;-76
2021/11/04 05:11:05;;;;;;;18.47;16.77;;;;;;;8.31;93.77;98977.75;4968439;28;20216;-78
2021/11/04 05:13:31;;;;;;;16.67;15.27;;;;;;;8.29;93.63;98976.09;4966419;28;20684;-77
2021/11/04 05:15:59;;;;;;;17.33;15.77;;;;;;;8.31;93.86;98969.94;4966774;28;20726;-77
2021/11/04 05:18:25;;;;;;;18.17;16.57;;;;;;;8.31;93.95;98974.31;4965466;28;20298;-77
2021/11/04 05:20:52;;;;;;;17.33;15.73;;;;;;;8.30;93.64;98986.44;4968943;28;20242;-77
2021/11/04 05:23:18;;;;;;;18.23;16.63;;;;;;;8.30;94.15;98985.59;4965723;28;20286;-77
2021/11/04 05:25:45;;;;;;;18.03;16.33;;;;;;;8.35;93.39;98979.34;4969083;28;20714;-77
2021/11/04 05:28:11;;;;;;;17.57;16.07;;;;;;;8.34;93.33;98993.25;4969335;28;20271;-77
2021/11/04 05:30:37;;;;;;;16.80;15.40;;;;;;;8.33;93.77;98991.53;4965704;28;20241;-77
2021/11/04 05:33:05;;;;;;;17.53;15.83;;;;;;;8.34;93.40;98992.38;4967022;28;20593;-77
2021/11/04 05:35:31;;;;;;;15.50;14.20;;;;;;;8.32;93.94;98991.59;4970581;28;21025;-77
2021/11/04 05:37:58;;;;;;;17.30;15.80;;;;;;;8.34;93.19;98981.97;4966532;28;20211;-78
2021/11/04 05:40:24;;;;;;;17.57;16.07;;;;;;;8.37;93.14;98994.06;4973624;28;20211;-77
2021/11/04 05:42:51;;;;;;;16.07;14.77;;;;;;;8.29;93.33;98986.50;4967023;28;20231;-77
2021/11/04 05:45:17;;;;;;;15.73;14.43;;;;;;;8.28;93.41;98995.19;4967477;28;20216;-78
2021/11/04 05:47:43;;;;;;;16.67;15.17;;;;;;;8.28;93.40;98979.59;4966687;28;20228;-78
2021/11/04 05:50:11;;;;;;;16.67;15.17;;;;;;;8.25;93.47;98979.72;4966747;28;20631;-77
2021/11/04 05:52:37;;;;;;;17.30;15.80;;;;;;;8.27;93.54;98970.94;4971531;28;20270;-78
2021/11/04 05:55:05;;;;;;;16.70;15.40;;;;;;;8.27;93.93;98963.16;4967481;28;20215;-78
2021/11/04 05:57:31;;;;;;;15.60;14.30;;;;;;;8.33;93.53;98973.34;4969667;28;20730;-77
2021/11/04 05:59:57;;;;;;;16.20;14.80;;;;;;;8.22;93.79;98969.41;4967892;28;20787;-78
2021/11/04 06:02:24;;;;;;;16.90;15.50;;;;;;;8.19;94.27;98941.78;4973664;28;20239;-78
2021/11/04 06:04:50;;;;;;;15.97;14.57;;;;;;;8.20;93.95;98938.25;4969529;28;20479;-77
2021/11/04 06:07:18;;;;;;;16.83;15.23;;;;;;;8.25;93.81;98951.97;4977311;28;20289;-78
2021/11/04 06:09:45;;;;;;;16.30;14.70;;;;;;;8.21;94.05;98942.56;4968573;28;20219;-78
2021/11/04 06:12:11;;;;;;;17.67;16.03;;;;;;;8.24;94.07;98941.59;4966447;28;20651;-78
2021/11/04 06:14:39;;;;;;;16.80;15.20;;;;;;;8.19;94.31;98938.31;4971334;28;20288;-77
2021/11/04 06:17:06;;;;;;;17.33;15.70;;;;;;;8.17;94.64;98933.19;4967311;28;20205;-78
2021/11/04 06:19:32;;;;;;;16.73;15.23;;;;;;;8.23;94.45;98943.38;4971206;28;20821;-78
2021/11/04 06:21:59;;;;;;;16.83;15.27;;;;;;;8.21;94.11;98942.56;4966880;28;20236;-77
2021/11/04 06:24:27;;;;;;;17.00;15.50;;;;;;;8.15;94.51;98940.19;4967071;28;20203;-78
2021/11/04 06:26:53;;;;;;;17.57;15.90;;;;;;;8.10;95.24;98926.47;4972041;28;20852;-77
2021/11/04 06:29:19;;;;;;;16.23;14.73;;;;;;;8.14;94.79;98928.06;4971941;28;20215;-78
2021/11/04 06:31:46;;;;;;;16.87;15.33;;;;;;;8.16;94.55;98937.50;4965496;28;20799;-78
2021/11/04 06:34:12;;;;;;;17.33;15.63;;;;;;;8.20;94.94;98940.00;4970381;28;20212;-77
2021/11/04 06:36:38;;;;;;;18.00;16.20;;;;;;;8.17;94.35;98943.56;4969637;28;20219;-77
2021/11/04 06:39:05;;;;;;;17.37;15.87;;;;;;;8.19;94.20;98948.72;4967160;28;20215;-78
2021/11/04 06:41:32;;;;;;;17.83;16.07;;;;;;;8.20;93.79;98958.22;4970678;28;20719;-78
2021/11/04 06:43:59;;;;;;;17.07;15.37;;;;;;;8.21;93.80;98958.16;4965280;28;20207;-77
2021/11/04 06:46:26;;;;;;;17.77;15.87;;;;;;;8.16;93.82;98947.91;4970683;28;20649;-78
2021/11/04 06:49:00;;;;;;;16.03;14.47;;;;;;;8.15;94.50;98937.56;4970616;28;20261;-77
2021/11/04 06:51:29;;;;;;;16.73;15.03;;;;;;;8.14;94.78;98943.66;4979276;28;20637;-77
2021/11/04 06:53:58;;;;;;;18.17;15.73;;;;;;;8.08;94.96;98923.91;4976365;28;20225;-78
2021/11/04 06:56:26;;;;;;;17.90;15.97;;;;;;;8.07;94.83;98921.41;4974999;28;20215;-78
2021/11/04 06:58:55;;;;;;;18.03;16.13;;;;;;;8.07;95.22;98913.59;4969052;28;20219;-78
2021/11/04 07:01:23;;;;;;;17.33;15.73;;;;;;;8.15;95.13;98917.63;4971404;28;20207;-77
2021/11/04 07:03:51;;;;;;;18.27;16.53;;;;;;;8.20;94.80;98914.03;4968784;28;20211;-78
2021/11/04 07:06:23;;;;;;;16.83;15.23;;;;;;;8.20;95.33;98914.03;4972316;28;20236;-77
2021/11/04 07:08:55;;;;;;;16.37;14.97;;;;;;;8.14;95.12;98922.88;4972782;28;20940;-77
2021/11/04 07:11:23;;;;;;;15.93;14.43;;;;;;;8.18;94.65;98921.84;4972671;28;20219;-78
2021/11/04 07:13:51;;;;;;;16.30;14.77;;;;;;;8.03;94.86;98923.25;4969141;28;20704;-78
2021/11/04 07:16:22;;;;;;;15.83;14.33;;;;;;;7.85;95.74;98916.03;4967369;28;20211;-78
2021/11/04 07:18:49;;;;;;;16.57;14.53;;;;;;;7.91;96.30;98911.50;4967517;28;20581;-77
2021/11/04 07:21:19;;;;;;;16.33;13.90;;;;;;;8.04;96.04;98911.09;4966830;28;20259;-78
2021/11/04 07:23:52;;;;;;;14.37;13.17;;;;;;;7.96;95.18;98919.97;4970364;28;20216;-79
2021/11/04 07:26:24;;;;;;;15.27;13.87;;;;;;;8.00;95.80;98923.31;4972222;28;20270;-79
2021/11/04 07:28:53;;;;;;;14.67;13.33;;;;;;;8.07;96.39;98908.41;4969495;28;20211;-79
2021/11/04 07:31:22;;;;;;;13.70;12.40;;;;;;;8.09;95.48;98910.03;4976615;28;21186;-80
2021/11/04 07:33:50;;;;;;;13.20;12.00;;;;;;;8.11;95.57;98916.03;4972716;28;20223;-78
2021/11/04 07:36:17;;;;;;;13.30;12.10;;;;;;;8.14;95.40;98921.09;4975987;28;20207;-79
2021/11/04 07:38:45;;;;;;;14.00;12.60;;;;;;;8.13;95.42;98916.00;4968989;28;20216;-80
2021/11/04 07:41:12;;;;;;;13.77;12.53;;;;;;;8.08;95.78;98929.13;4972011;28;20222;-78
2021/11/04 07:43:38;;;;;;;13.10;11.90;;;;;;;8.12;94.98;98927.25;4980773;28;20241;-79
2021/11/04 07:46:05;;;;;;;13.20;12.00;;;;;;;8.04;95.47;98930.13;4977735;28;20208;-79
2021/11/04 07:48:33;;;;;;;13.27;12.17;;;;;;;7.95;95.38;98928.69;4983461;28;20675;-80
2021/11/04 07:51:00;;;;;;;13.17;11.87;;;;;;;8.02;95.58;98929.31;4982343;28;20277;-78
2021/11/04 07:53:26;;;;;;;13.17;12.07;;;;;;;7.99;95.37;98923.38;4982050;28;21177;-78
2021/11/04 07:55:54;;;;;;;13.07;11.97;;;;;;;7.90;95.45;98927.97;4978491;28;20278;-79
2021/11/04 07:58:20;;;;;;;13.30;12.13;;;;;;;7.89;96.61;98917.66;4979666;28;20211;-79
2021/11/04 08:00:48;;;;;;;12.87;11.60;;;;;;;7.94;96.19;98911.38;4980959;28;20274;-79
2021/11/04 08:03:15;;;;;;;13.67;12.57;;;;;;;7.91;96.49;98910.66;4978869;28;20236;-79
2021/11/04 08:05:42;;;;;;;14.83;13.53;;;;;;;8.01;96.10;98903.38;4980381;28;20212;-80
2021/11/04 08:08:09;;;;;;;15.27;13.93;;;;;;;8.01;96.33;98906.84;4971753;28;20234;-76
2021/11/04 08:10:36;;;;;;;14.20;12.90;;;;;;;8.05;96.38;98905.84;4973010;28;21090;-80
2021/11/04 08:13:06;;;;;;;14.27;13.07;;;;;;;8.08;96.03;98910.09;4973074;28;20718;-79
2021/11/04 08:15:33;;;;;;;15.67;14.27;;;;;;;7.84;96.33;98907.38;4976266;28;20313;-79
2021/11/04 08:18:00;;;;;;;15.60;13.97;;;;;;;7.82;97.46;98888.41;4971451;28;20211;-79
2021/11/04 08:20:27;;;;;;;16.63;13.80;;;;;;;7.77;97.46;98879.94;4973228;28;20306;-81
2021/11/04 08:22:55;;;;;;;16.80;15.07;;;;;;;7.80;98.13;98868.59;4973094;28;20226;-78
2021/11/04 08:25:21;;;;;;;15.13;13.57;;;;;;;7.92;97.86;98856.03;4972639;28;20694;-80
2021/11/04 08:27:48;;;;;;;18.57;15.57;;;;;;;7.90;98.11;98865.63;4979618;28;20230;-78
2021/11/04 08:30:16;;;;;;;24.13;17.23;;;;;;;7.89;98.52;98853.53;4980821;28;20215;-79
2021/11/04 08:32:43;;;;;;;25.93;18.37;;;;;;;7.81;98.24;98857.28;4978068;28;20725;-80
2021/11/04 08:35:09;;;;;;;27.23;17.57;;;;;;;7.64;98.69;98843.13;4980894;28;20217;-79
2021/11/04 08:37:36;;;;;;;25.50;17.23;;;;;;;7.66;98.59;98832.69;4973659;28;20564;-78
2021/11/04 08:40:05;;;;;;;22.00;17.23;;;;;;;7.62;99.46;98824.13;4971841;28;20261;-79
2021/11/04 08:42:32;;;;;;;24.07;15.43;;;;;;;7.65;99.59;98817.97;4971780;28;20231;-78
2021/11/04 08:44:59;;;;;;;17.13;15.53;;;;;;;7.62;100.00;98805.13;4977450;28;20426;-79
2021/11/04 08:47:26;;;;;;;17.23;15.53;;;;;;;7.32;100.00;98784.47;4974400;28;20270;-78
2021/11/04 08:49:52;;;;;;;19.70;16.23;;;;;;;7.33;100.00;98773.16;4974233;28;20267;-79
2021/11/04 08:52:18;;;;;;;20.93;16.50;;;;;;;7.31;100.00;98757.66;4977822;28;20242;-79
2021/11/04 08:54:45;;;;;;;17.50;15.73;;;;;;;7.35;100.00;98750.59;4979199;28;20214;-78
2021/11/04 08:57:13;;;;;;;16.50;14.90;;;;;;;7.22;100.00;98739.78;4978502;28;20279;-78
2021/11/04 08:59:41;;;;;;;18.33;16.43;;;;;;;7.12;100.00;98741.00;4971959;28;20237;-79
2021/11/04 09:02:08;;;;;;;18.37;16.27;;;;;;;7.28;100.00;98741.34;4975247;28;20230;-79
2021/11/04 09:04:34;;;;;;;18.37;16.67;;;;;;;7.32;100.00;98748.13;4971443;28;20203;-78
2021/11/04 09:07:00;;;;;;;17.50;15.80;;;;;;;7.29;100.00;98749.03;4971044;28;20621;-78
2021/11/04 09:09:27;;;;;;;16.37;14.63;;;;;;;7.19;100.00;98747.66;4971959;28;20233;-79
2021/11/04 09:11:53;;;;;;;16.20;14.67;;;;;;;7.15;100.00;98744.34;4971208;28;20281;-79
2021/11/04 09:14:21;;;;;;;16.37;14.73;;;;;;;7.20;100.00;98739.00;4973158;28;20271;-79
2021/11/04 09:16:47;;;;;;;15.50;14.10;;;;;;;7.13;100.00;98738.31;4970977;28;20269;-79
2021/11/04 09:19:13;;;;;;;16.67;15.07;;;;;;;7.13;100.00;98738.31;4971685;28;20205;-78
2021/11/04 09:21:40;;;;;;;17.60;15.70;;;;;;;7.10;100.00;98725.47;4969516;28;20231;-78
2021/11/04 09:24:06;;;;;;;17.37;15.60;;;;;;;7.18;100.00;98729.56;4970883;28;20211;-79
2021/11/04 09:26:34;;;;;;;18.63;15.60;;;;;;;7.16;100.00;98733.03;4974178;28;20249;-78
2021/11/04 09:29:00;;;;;;;16.83;15.17;;;;;;;7.18;100.00;98738.19;4976995;28;20300;-78
2021/11/04 09:31:28;;;;;;;17.00;15.27;;;;;;;7.16;100.00;98730.44;4973800;28;20270;-78
2021/11/04 09:33:57;;;;;;;16.87;15.17;;;;;;;7.25;100.00;98739.66;4973002;28;20211;-78
2021/11/04 09:36:25;;;;;;;16.57;14.87;;;;;;;7.22;100.00;98742.38;4970081;28;20536;-79
2021/11/04 09:38:52;;;;;;;17.17;15.47;;;;;;;7.18;100.00;98747.72;4976875;28;20208;-77
2021/11/04 09:41:19;;;;;;;18.10;16.23;;;;;;;7.11;100.00;98745.31;4977540;28;20277;-79
2021/11/04 09:43:46;;;;;;;18.83;16.93;;;;;;;7.12;100.00;98747.03;4973510;28;20218;-77
2021/11/04 09:46:12;;;;;;;18.67;16.80;;;;;;;7.14;100.00;98752.16;4970217;28;20343;-78
2021/11/04 09:48:40;;;;;;;20.13;18.13;;;;;;;7.16;100.00;98751.22;4975105;28;21158;-79
2021/11/04 09:51:07;;;;;;;20.10;18.00;;;;;;;7.14;100.00;98755.59;4975399;28;20246;-79
2021/11/04 09:53:34;;;;;;;21.13;18.37;;;;;;;7.26;100.00;98756.94;4972593;28;20239;-79
2021/11/04 09:56:01;;;;;;;20.43;18.43;;;;;;;7.24;100.00;98766.53;4974908;28;20215;-79
2021/11/04 09:58:28;;;;;;;19.83;17.93;;;;;;;7.29;100.00;98759.44;4973082;28;20207;-78
2021/11/04 10:00:55;;;;;;;20.67;18.50;;;;;;;7.20;100.00;98767.53;4977866;28;20211;-79
2021/11/04 10:03:21;;;;;;;21.33;19.23;;;;;;;7.22;100.00;98765.75;4975211;28;20235;-79
2021/11/04 10:05:51;;;;;;;20.17;18.27;;;;;;;7.16;100.00;98771.97;4970389;28;20208;-79
2021/11/04 10:08:31;;;;;;;21.23;19.23;;;;;;;7.06;100.00;98769.72;4968901;28;20711;-82
2021/11/04 10:11:05;;;;;;;24.37;19.40;;;;;;;7.08;100.00;98771.38;4968765;28;20378;-79
2021/11/04 10:13:32;;;;;;;20.23;17.90;;;;;;;7.22;100.00;98783.06;4969898;28;21181;-79
2021/11/04 10:15:59;;;;;;;18.17;16.30;;;;;;;7.20;100.00;98790.88;4970211;28;20689;-80
2021/11/04 10:18:26;;;;;;;16.70;15.17;;;;;;;7.19;100.00;98791.78;4970091;28;20721;-79
2021/11/04 10:20:58;;;;;;;16.77;15.17;;;;;;;7.19;100.00;98794.38;4973026;28;20203;-79
2021/11/04 10:23:26;;;;;;;17.07;15.60;;;;;;;7.11;100.00;98799.78;4971048;28;20239;-81
2021/11/04 10:26:04;;;;;;;15.93;14.40;;;;;;;7.12;100.00;98795.47;4970476;28;20258;-80
2021/11/04 10:28:32;;;;;;;17.77;16.07;;;;;;;7.12;100.00;98803.25;4970023;28;20661;-79
2021/11/04 10:31:01;;;;;;;16.83;15.23;;;;;;;7.15;100.00;98798.81;4971967;28;20295;-80
2021/11/04 10:33:29;;;;;;;17.27;15.50;;;;;;;7.09;100.00;98809.38;4977943;28;20237;-79
2021/11/04 10:36:01;;;;;;;16.93;15.43;;;;;;;7.14;100.00;98810.09;4979786;28;20669;-80
2021/11/04 10:38:37;;;;;;;15.40;13.93;;;;;;;7.27;100.00;98812.28;4977211;28;20658;-78
2021/11/04 10:41:11;;;;;;;15.37;13.87;;;;;;;7.23;100.00;98818.47;4975265;28;20259;-80
2021/11/04 10:43:39;;;;;;;14.90;13.57;;;;;;;7.14;100.00;98823.06;4978745;28;20226;-80
2021/11/04 10:46:13;;;;;;;16.23;14.73;;;;;;;7.17;100.00;98822.09;4977073;28;20234;-79
2021/11/04 10:48:40;;;;;;;16.10;14.47;;;;;;;7.12;100.00;98824.84;4977387;28;20292;-80
2021/11/04 10:51:15;;;;;;;16.13;14.50;;;;;;;7.18;100.00;98823.81;4975274;28;20277;-80
2021/11/04 10:53:41;;;;;;;15.00;13.60;;;;;;;7.25;100.00;98829.66;4969847;28;20222;-79
2021/11/04 10:56:18;;;;;;;14.93;13.47;;;;;;;7.15;100.00;98837.75;4968409;28;20200;-78
2021/11/04 10:58:51;;;;;;;16.55;15.05;;;;;;;7.22;100.00;98835.81;4968942;28;20805;-78
2021/11/04 11:01:29;;;;;;;18.70;17.15;;;;;;;7.15;100.00;98844.66;4968750;28;20441;-79
2021/11/04 11:04:01;;;;;;;15.77;14.37;;;;;;;7.14;100.00;98849.00;4970821;28;20208;-79
2021/11/04 11:06:30;;;;;;;15.75;14.38;;;;;;;7.08;100.00;98849.19;4967731;28;20458;-79
2021/11/04 11:08:59;;;;;;;15.53;14.13;;;;;;;7.16;100.00;98852.41;4968513;28;20286;-79
2021/11/04 11:11:26;;;;;;;13.50;12.23;;;;;;;7.06;100.00;98853.59;4969411;28;20689;-78
2021/11/04 11:13:52;;;;;;;16.27;14.63;;;;;;;7.12;100.00;98850.81;4965760;28;20287;-78
2021/11/04 11:16:19;;;;;;;13.97;12.73;;;;;;;7.22;100.00;98850.53;4966245;28;20219;-78
2021/11/04 11:18:45;;;;;;;14.27;12.87;;;;;;;7.13;100.00;98854.25;4967751;28;20214;-79
2021/11/04 11:21:12;;;;;;;13.53;12.33;;;;;;;7.15;100.00;98862.81;4967973;28;20212;-78
2021/11/04 11:23:42;;;;;;;12.80;11.60;;;;;;;7.20;100.00;98858.34;4970939;28;20207;-78
2021/11/04 11:26:14;;;;;;;14.13;12.63;;;;;;;7.22;100.00;98866.09;4972042;28;20213;-79
2021/11/04 11:28:42;;;;;;;12.33;11.27;;;;;;;7.08;100.00;98871.72;4970549;28;20325;-79